createdAt,value
2023-03-23T15:59:49.819Z,17.81
2023-03-23T16:02:23.796Z,17.77
2023-03-23T16:04:54.749Z,17.64
2023-03-23T16:07:25.629Z,17.53
2023-03-23T16:09:56.540Z,17.47
2023-03-23T16:12:27.481Z,17.39
2023-03-23T16:14:58.238Z,17.27
2023-03-23T16:17:29.146Z,17.20
2023-03-23T16:19:59.888Z,17.15
2023-03-23T16:22:30.688Z,17.10
2023-03-23T16:25:02.197Z,17.03
2023-03-23T16:27:33.035Z,16.95
2023-03-23T16:30:04.951Z,16.91
2023-03-23T16:35:06.303Z,16.83
2023-03-23T16:37:37.185Z,16.82
2023-03-23T16:40:09.859Z,16.78
2023-03-23T16:42:40.729Z,16.75
2023-03-23T16:45:12.041Z,16.71
2023-03-23T16:47:43.088Z,16.69
2023-03-23T16:50:14.647Z,16.66
2023-03-23T16:52:47.572Z,16.58
2023-03-23T16:55:18.374Z,16.56
2023-03-23T16:57:49.241Z,16.55
2023-03-23T17:00:22.210Z,16.54
2023-03-23T17:02:53.189Z,16.50
2023-03-23T17:05:24.577Z,16.43
2023-03-23T17:07:56.010Z,16.39
2023-03-23T17:10:28.340Z,16.37
2023-03-23T17:12:59.196Z,16.33
2023-03-23T17:15:29.985Z,16.26
2023-03-23T17:18:02.009Z,16.23
2023-03-23T17:20:32.943Z,16.20
2023-03-23T17:23:03.864Z,16.12
2023-03-23T17:25:34.720Z,16.04
2023-03-23T17:28:07.003Z,16.00
2023-03-23T17:30:38.377Z,15.94
2023-03-23T17:33:09.228Z,15.87
2023-03-23T17:35:40.068Z,15.82
2023-03-23T17:41:17.307Z,15.68
2023-03-23T17:43:48.276Z,15.68
2023-03-23T17:46:19.643Z,15.67
2023-03-23T17:48:50.533Z,15.63
2023-03-23T17:51:21.480Z,15.60
2023-03-23T17:53:52.434Z,15.60
2023-03-23T17:56:23.403Z,15.60
2023-03-23T17:58:54.181Z,15.55
2023-03-23T18:01:25.114Z,15.48
2023-03-23T18:03:57.049Z,15.46
2023-03-23T18:06:29.235Z,15.36
2023-03-23T18:09:00.549Z,15.24
2023-03-23T18:11:31.215Z,15.11
2023-03-23T18:14:02.328Z,15.06
2023-03-23T18:16:33.125Z,14.98
2023-03-23T18:19:07.839Z,14.90
2023-03-23T18:21:39.117Z,14.86
2023-03-23T18:24:10.632Z,14.85
2023-03-23T18:26:41.698Z,14.84
2023-03-23T18:29:12.402Z,14.86
2023-03-23T18:31:44.309Z,14.90
2023-03-23T18:34:15.848Z,14.93
2023-03-23T18:36:47.448Z,14.91
2023-03-23T18:39:18.489Z,14.87
2023-03-23T18:41:49.269Z,14.82
2023-03-23T18:44:20.041Z,14.73
2023-03-23T18:46:50.675Z,14.65
2023-03-23T18:49:21.424Z,14.59
2023-03-23T18:51:54.840Z,14.57
2023-03-23T18:54:25.866Z,14.56
2023-03-23T18:57:00.448Z,14.56
2023-03-23T18:59:34.004Z,14.53
2023-03-23T19:02:04.935Z,14.51
2023-03-23T19:04:36.659Z,14.52
2023-03-23T19:07:08.501Z,14.50
2023-03-23T19:09:39.393Z,14.48
2023-03-23T19:12:11.865Z,14.53
2023-03-23T19:14:42.938Z,14.55
2023-03-23T19:17:29.867Z,14.56
2023-03-23T19:21:34.156Z,14.54
2023-03-23T19:23:53.473Z,14.45
2023-03-23T19:26:26.045Z,14.41
2023-03-23T19:31:31.802Z,14.31
2023-03-23T19:34:03.213Z,14.25
2023-03-23T19:36:36.993Z,14.19
2023-03-23T19:39:08.952Z,14.17
2023-03-23T19:41:41.003Z,14.13
2023-03-23T19:44:12.731Z,14.13
2023-03-23T19:46:52.939Z,14.13
2023-03-23T19:49:24.689Z,14.13
2023-03-23T19:52:07.167Z,14.13
2023-03-23T19:54:41.545Z,14.14
2023-03-23T19:57:12.439Z,14.15
2023-03-23T19:59:44.303Z,14.16
2023-03-23T20:02:17.415Z,14.14
2023-03-23T20:04:48.551Z,14.12
2023-03-23T20:07:21.354Z,14.07
2023-03-23T20:09:52.579Z,13.97
2023-03-23T20:12:23.490Z,13.92
2023-03-23T20:14:54.244Z,13.88
2023-03-23T20:17:25.126Z,13.77
2023-03-23T20:19:56.775Z,13.73
2023-03-23T20:22:27.634Z,13.76
2023-03-23T20:25:00.512Z,13.78
2023-03-23T20:27:32.350Z,13.79
2023-03-23T20:30:06.899Z,13.78
2023-03-23T20:32:40.824Z,13.74
2023-03-23T20:35:14.683Z,13.70
2023-03-23T20:37:45.626Z,13.65
2023-03-23T20:40:16.503Z,13.68
2023-03-23T20:42:47.570Z,13.70
2023-03-23T20:45:18.595Z,13.65
2023-03-23T20:47:49.516Z,13.60
2023-03-23T20:50:20.371Z,13.54
2023-03-23T20:52:51.127Z,13.47
2023-03-23T20:55:21.898Z,13.44
2023-03-23T20:57:52.685Z,13.45
2023-03-23T21:00:23.611Z,13.42
2023-03-23T21:02:54.544Z,13.40
2023-03-23T21:05:25.494Z,13.44
2023-03-23T21:07:59.220Z,13.42
2023-03-23T21:10:29.964Z,13.39
2023-03-23T21:13:01.358Z,13.36
2023-03-23T21:15:32.386Z,13.31
2023-03-23T21:18:03.402Z,13.23
2023-03-23T21:20:34.552Z,13.17
2023-03-23T21:23:06.288Z,13.18
2023-03-23T21:25:38.152Z,13.19
2023-03-23T21:28:09.009Z,13.18
2023-03-23T21:30:41.970Z,13.13
2023-03-23T21:33:13.152Z,13.12
2023-03-23T21:35:44.139Z,13.11
2023-03-23T21:38:20.000Z,13.12
2023-03-23T21:40:51.059Z,13.12
2023-03-23T21:43:27.650Z,13.09
2023-03-23T21:46:03.083Z,13.04
2023-03-23T21:48:44.333Z,12.98
2023-03-23T21:51:15.577Z,12.97
2023-03-23T21:53:47.044Z,13.00
2023-03-23T21:56:22.817Z,13.03
2023-03-23T21:58:53.880Z,13.02
2023-03-23T22:01:24.996Z,13.03
2023-03-23T22:03:58.345Z,13.05
2023-03-23T22:06:31.137Z,13.07
2023-03-23T22:09:05.510Z,13.05
2023-03-23T22:11:37.600Z,13.03
2023-03-23T22:14:08.656Z,13.02
2023-03-23T22:16:41.588Z,12.98
2023-03-23T22:19:12.761Z,12.95
2023-03-23T22:21:43.939Z,12.92
2023-03-23T22:24:15.114Z,12.90
2023-03-23T22:26:47.619Z,12.90
2023-03-23T22:29:21.006Z,12.91
2023-03-23T22:31:52.093Z,12.89
2023-03-23T22:34:22.905Z,12.81
2023-03-23T22:36:53.863Z,12.70
2023-03-23T22:39:24.760Z,12.63
2023-03-23T22:41:55.796Z,12.54
2023-03-23T22:44:27.139Z,12.47
2023-03-23T22:46:58.000Z,12.45
2023-03-23T22:49:28.943Z,12.42
2023-03-23T22:51:59.764Z,12.36
2023-03-23T22:54:30.815Z,12.34
2023-03-23T22:57:01.634Z,12.32
2023-03-23T22:59:32.723Z,12.26
2023-03-23T23:02:06.804Z,12.21
2023-03-23T23:06:37.563Z,12.19
2023-03-23T23:07:56.952Z,12.18
2023-03-23T23:10:28.101Z,12.13
2023-03-23T23:12:59.185Z,12.08
2023-03-23T23:15:30.274Z,12.06
2023-03-23T23:18:01.759Z,12.08
2023-03-23T23:20:33.384Z,12.09
2023-03-23T23:23:04.192Z,12.09
2023-03-23T23:25:35.245Z,12.08
2023-03-23T23:28:06.706Z,12.07
2023-03-23T23:30:38.046Z,12.06
2023-03-23T23:33:09.387Z,12.05
2023-03-23T23:35:40.704Z,12.03
2023-03-23T23:38:12.772Z,12.03
2023-03-23T23:40:44.446Z,12.08
2023-03-23T23:43:16.285Z,12.12
2023-03-23T23:45:47.293Z,12.08
2023-03-23T23:48:18.485Z,12.01
2023-03-23T23:50:49.351Z,11.94
2023-03-23T23:53:23.049Z,11.93
2023-03-23T23:55:54.319Z,11.96
2023-03-23T23:58:25.288Z,11.98
